createdAt,value
2019-04-12T00:02:05.789Z,10.30
2019-04-12T00:04:34.552Z,10.30
2019-04-12T00:07:04.011Z,10.20
2019-04-12T00:09:32.989Z,10.20
2019-04-12T00:12:01.777Z,10.20
2019-04-12T00:14:30.597Z,10.20
2019-04-12T00:16:59.518Z,10.20
2019-04-12T00:19:28.261Z,10.20
2019-04-12T00:21:56.986Z,10.20
2019-04-12T00:24:34.265Z,10.20
2019-04-12T00:26:56.198Z,10.10
2019-04-12T00:29:24.958Z,10.10
2019-04-12T00:31:53.665Z,10.10
2019-04-12T00:34:23.344Z,10.10
2019-04-12T00:36:53.396Z,10.10
2019-04-12T00:39:22.914Z,10.00
2019-04-12T00:41:51.656Z,10.00
2019-04-12T00:44:20.541Z,10.00
2019-04-12T00:46:50.748Z,10.00
2019-04-12T00:49:19.486Z,10.00
2019-04-12T00:51:48.355Z,10.00
2019-04-12T00:54:17.245Z,10.00
2019-04-12T00:56:46.716Z,9.90
2019-04-12T00:59:17.391Z,9.90
2019-04-12T01:01:54.390Z,9.90
2019-04-12T01:04:30.961Z,9.90
2019-04-12T01:06:59.977Z,9.90
2019-04-12T01:09:28.832Z,9.90
2019-04-12T01:11:57.549Z,9.90
2019-04-12T01:14:28.274Z,9.90
2019-04-12T01:16:58.178Z,9.90
2019-04-12T01:19:27.257Z,9.90
2019-04-12T01:21:56.693Z,9.80
2019-04-12T01:24:25.466Z,9.80
2019-04-12T01:26:54.241Z,9.80
2019-04-12T01:29:22.977Z,9.80
2019-04-12T01:31:51.690Z,9.80
2019-04-12T01:34:20.405Z,9.80
2019-04-12T01:36:56.674Z,9.80
2019-04-12T01:39:25.385Z,9.80
2019-04-12T01:41:54.128Z,9.80
2019-04-12T01:44:22.905Z,9.80
2019-04-12T01:46:51.809Z,9.80
2019-04-12T01:49:20.613Z,9.70
2019-04-12T01:51:49.339Z,9.70
2019-04-12T01:54:18.076Z,9.70
2019-04-12T01:56:46.782Z,9.70
2019-04-12T01:59:15.568Z,9.70
2019-04-12T02:01:44.270Z,9.70
2019-04-12T02:04:13.036Z,9.70
2019-04-12T02:06:42.359Z,9.70
2019-04-12T02:09:11.065Z,9.60
2019-04-12T02:11:39.781Z,9.70
2019-04-12T02:14:08.805Z,9.60
2019-04-12T02:16:37.585Z,9.60
2019-04-12T02:19:06.317Z,9.60
2019-04-12T02:21:35.309Z,9.50
2019-04-12T02:24:04.046Z,9.50
2019-04-12T02:26:32.849Z,9.50
2019-04-12T02:29:01.567Z,9.50
2019-04-12T02:31:38.915Z,9.50
2019-04-12T02:34:08.000Z,9.50
2019-04-12T02:36:36.735Z,9.50
2019-04-12T02:39:07.226Z,9.50
2019-04-12T02:41:37.321Z,9.40
2019-04-12T02:44:06.403Z,9.40
2019-04-12T02:46:44.191Z,9.40
2019-04-12T02:49:18.982Z,9.40
2019-04-12T02:52:01.842Z,9.40
2019-04-12T02:54:39.486Z,9.40
2019-04-12T02:57:46.603Z,9.40
2019-04-12T03:00:37.654Z,9.40
2019-04-12T03:03:07.714Z,9.40
2019-04-12T03:05:36.970Z,9.40
2019-04-12T03:08:05.790Z,9.40
2019-04-12T03:10:34.783Z,9.40
2019-04-12T03:13:04.422Z,9.40
2019-04-12T03:15:35.318Z,9.30
2019-04-12T03:18:04.612Z,9.30
2019-04-12T03:20:33.573Z,9.30
2019-04-12T03:23:02.963Z,9.30
2019-04-12T03:25:32.749Z,9.30
2019-04-12T03:28:01.925Z,9.30
2019-04-12T03:30:30.802Z,9.30
2019-04-12T03:33:00.599Z,9.30
2019-04-12T03:35:29.475Z,9.30
2019-04-12T03:37:58.614Z,9.30
2019-04-12T03:40:27.528Z,9.30
2019-04-12T03:42:56.713Z,9.30
2019-04-12T03:45:25.869Z,9.30
2019-04-12T03:47:57.684Z,9.20
2019-04-12T03:50:25.339Z,9.20
2019-04-12T03:52:54.309Z,9.20
2019-04-12T03:55:23.598Z,9.20
2019-04-12T03:57:52.605Z,9.20
2019-04-12T04:00:24.845Z,9.20
2019-04-12T04:02:53.182Z,9.20
2019-04-12T04:05:22.150Z,9.10
2019-04-12T04:07:51.215Z,9.10
2019-04-12T04:10:20.030Z,9.10
2019-04-12T04:12:49.193Z,9.10
2019-04-12T04:15:19.194Z,9.10
2019-04-12T04:18:03.337Z,9.10
2019-04-12T04:20:44.710Z,9.10
2019-04-12T04:23:35.642Z,9.10
2019-04-12T04:26:24.322Z,9.10
2019-04-12T04:29:00.161Z,9.00
2019-04-12T04:31:37.610Z,9.00
2019-04-12T04:34:06.790Z,9.00
2019-04-12T04:36:36.546Z,9.00
2019-04-12T04:39:08.538Z,9.00
2019-04-12T04:41:37.722Z,9.00
2019-04-12T04:44:06.603Z,9.00
2019-04-12T04:46:35.698Z,9.00
2019-04-12T04:49:04.829Z,9.00
2019-04-12T04:51:33.965Z,9.00
2019-04-12T04:54:03.236Z,9.00
2019-04-12T04:56:34.120Z,9.00
2019-04-12T04:59:03.206Z,9.00
2019-04-12T05:01:32.154Z,8.90
2019-04-12T05:04:01.005Z,8.90
2019-04-12T05:06:30.362Z,8.90
2019-04-12T05:08:59.468Z,9.00
2019-04-12T05:11:28.652Z,8.90
2019-04-12T05:13:57.721Z,8.90
2019-04-12T05:16:26.794Z,8.90
2019-04-12T05:18:56.129Z,8.90
2019-04-12T05:21:25.269Z,8.90
2019-04-12T05:23:54.333Z,8.90
2019-04-12T05:26:23.592Z,8.80
2019-04-12T05:28:52.450Z,8.80
2019-04-12T05:31:21.490Z,8.80
2019-04-12T05:33:50.345Z,8.80
2019-04-12T05:36:23.146Z,8.80
2019-04-12T05:38:51.997Z,8.80
2019-04-12T05:41:20.724Z,8.80
2019-04-12T05:43:52.231Z,8.80
2019-04-12T05:46:40.237Z,8.80
2019-04-12T05:49:28.025Z,8.80
2019-04-12T05:51:56.819Z,8.80
2019-04-12T05:54:25.593Z,8.90
2019-04-12T05:56:57.204Z,8.80
2019-04-12T05:59:32.778Z,8.90
2019-04-12T06:02:26.573Z,8.90
2019-04-12T06:04:58.892Z,8.90
2019-04-12T06:07:25.885Z,8.90
2019-04-12T06:09:54.688Z,8.90
2019-04-12T06:12:24.474Z,8.90
2019-04-12T06:14:53.850Z,9.00
2019-04-12T06:17:22.705Z,8.90
2019-04-12T06:19:54.173Z,9.00
2019-04-12T06:22:22.933Z,9.00
2019-04-12T06:25:10.969Z,9.00
2019-04-12T06:27:45.673Z,9.00
2019-04-12T06:30:18.576Z,9.00
2019-04-12T06:32:47.475Z,9.00
2019-04-12T06:35:16.481Z,9.00
2019-04-12T06:37:45.289Z,9.00
2019-04-12T06:40:14.246Z,9.00
2019-04-12T06:42:42.946Z,9.00
2019-04-12T06:45:12.057Z,9.10
2019-04-12T06:47:40.897Z,9.10
2019-04-12T06:50:13.101Z,9.10
2019-04-12T06:52:41.854Z,9.10
2019-04-12T06:55:17.375Z,9.10
2019-04-12T06:57:45.166Z,9.10
2019-04-12T07:00:26.853Z,9.10
2019-04-12T07:03:24.937Z,9.10
2019-04-12T07:05:53.657Z,9.10
2019-04-12T07:08:22.404Z,9.10
2019-04-12T07:10:51.185Z,9.10
2019-04-12T07:13:19.905Z,9.10
2019-04-12T07:15:48.609Z,9.10
2019-04-12T07:18:17.339Z,9.10
2019-04-12T07:20:46.070Z,9.10
2019-04-12T07:23:14.788Z,9.10
2019-04-12T07:25:43.502Z,9.10
2019-04-12T07:28:12.378Z,9.10
2019-04-12T07:30:41.153Z,9.10
2019-04-12T07:33:09.945Z,9.10
2019-04-12T07:35:38.698Z,9.10
2019-04-12T07:38:07.505Z,9.10
2019-04-12T07:40:37.536Z,9.10
2019-04-12T07:43:06.242Z,9.10
2019-04-12T07:45:35.082Z,9.10
2019-04-12T07:48:03.879Z,9.20
2019-04-12T07:50:46.970Z,9.30
2019-04-12T07:53:15.681Z,9.40
2019-04-12T07:56:00.739Z,9.50
2019-04-12T07:58:40.865Z,9.60
2019-04-12T08:01:15.381Z,9.70
2019-04-12T08:04:03.190Z,9.80
2019-04-12T08:06:39.633Z,9.90
2019-04-12T08:09:09.141Z,10.10
2019-04-12T08:11:37.855Z,10.20
2019-04-12T08:14:06.587Z,10.30
2019-04-12T08:16:35.313Z,10.40
2019-04-12T08:19:04.029Z,10.50
2019-04-12T08:21:32.853Z,10.60
2019-04-12T08:24:01.837Z,10.70
2019-04-12T08:26:30.590Z,10.80
2019-04-12T08:28:59.309Z,10.90
2019-04-12T08:31:28.017Z,11.00
2019-04-12T08:33:56.721Z,11.00
2019-04-12T08:36:26.228Z,11.10
2019-04-12T08:38:55.105Z,11.20
2019-04-12T08:41:23.898Z,11.30
2019-04-12T08:43:54.131Z,11.40
2019-04-12T08:46:25.338Z,11.50
2019-04-12T08:48:54.168Z,11.60
2019-04-12T08:51:23.102Z,11.70
2019-04-12T08:53:51.969Z,11.80
2019-04-12T08:56:20.829Z,12.00
2019-04-12T08:58:49.609Z,12.10
2019-04-12T09:01:18.977Z,12.20
2019-04-12T09:03:47.749Z,12.30
2019-04-12T09:06:16.646Z,12.30
2019-04-12T09:09:04.669Z,12.30
2019-04-12T09:11:33.574Z,12.30
2019-04-12T09:14:02.374Z,12.30
2019-04-12T09:16:31.260Z,12.30
2019-04-12T09:19:03.125Z,12.20
2019-04-12T09:21:47.402Z,12.20
2019-04-12T09:24:23.336Z,12.20
2019-04-12T09:26:52.105Z,12.10
2019-04-12T09:29:21.914Z,12.10
2019-04-12T09:31:50.783Z,12.10
2019-04-12T09:34:19.557Z,12.10
2019-04-12T09:36:48.261Z,12.10
2019-04-12T09:39:16.996Z,12.10
2019-04-12T09:41:45.728Z,12.20
2019-04-12T09:44:14.533Z,12.30
2019-04-12T09:46:43.246Z,12.40
2019-04-12T09:49:11.983Z,12.40
2019-04-12T09:51:40.766Z,12.50
2019-04-12T09:54:09.537Z,12.50
2019-04-12T09:56:38.259Z,12.50
2019-04-12T09:59:06.977Z,12.50
2019-04-12T10:01:35.729Z,12.50
2019-04-12T10:04:04.518Z,12.50
2019-04-12T10:06:33.233Z,12.50
2019-04-12T10:09:02.027Z,12.50
2019-04-12T10:11:30.905Z,12.50
2019-04-12T10:13:59.794Z,12.40
2019-04-12T10:16:28.620Z,12.40
2019-04-12T10:18:57.329Z,12.40
2019-04-12T10:21:26.160Z,12.30
2019-04-12T10:23:55.061Z,12.30
2019-04-12T10:26:23.840Z,12.30
2019-04-12T10:28:52.569Z,12.30
2019-04-12T10:31:21.296Z,12.30
2019-04-12T10:33:50.012Z,13.50
2019-04-12T10:36:18.749Z,12.30
2019-04-12T10:38:53.414Z,12.40
2019-04-12T10:41:25.045Z,12.40
2019-04-12T10:44:12.866Z,12.50
2019-04-12T10:46:46.555Z,12.60
2019-04-12T10:49:33.474Z,12.80
2019-04-12T10:52:10.915Z,12.90
2019-04-12T10:55:04.820Z,13.00
2019-04-12T10:57:33.627Z,13.00
2019-04-12T11:00:02.408Z,13.00
2019-04-12T11:02:31.251Z,13.00
2019-04-12T11:04:59.994Z,13.00
2019-04-12T11:07:28.744Z,13.00
2019-04-12T11:09:57.478Z,12.90
2019-04-12T11:12:26.286Z,12.90
2019-04-12T11:14:55.288Z,12.80
2019-04-12T11:17:24.140Z,12.80
2019-04-12T11:19:52.993Z,12.80
2019-04-12T11:22:21.700Z,12.70
2019-04-12T11:24:50.432Z,12.70
2019-04-12T11:27:19.142Z,12.70
2019-04-12T11:29:47.862Z,12.70
2019-04-12T11:32:16.840Z,12.60
2019-04-12T11:34:45.629Z,12.60
2019-04-12T11:37:14.437Z,12.60
2019-04-12T11:39:43.334Z,12.40
2019-04-12T11:42:12.098Z,12.40
2019-04-12T11:44:40.865Z,12.40
2019-04-12T11:47:09.605Z,12.50
2019-04-12T11:49:38.466Z,12.50
2019-04-12T11:52:07.301Z,12.50
2019-04-12T11:54:36.136Z,12.50
2019-04-12T11:57:05.057Z,12.50
2019-04-12T11:59:33.779Z,12.50
2019-04-12T12:02:12.609Z,12.50
2019-04-12T12:05:00.429Z,12.60
2019-04-12T12:07:49.810Z,12.60
2019-04-12T12:10:38.933Z,12.60
2019-04-12T12:13:24.085Z,12.60
2019-04-12T12:16:11.061Z,12.60
2019-04-12T12:18:42.598Z,12.70
2019-04-12T12:21:11.325Z,12.70
2019-04-12T12:23:40.125Z,12.70
2019-04-12T12:26:08.913Z,12.70
2019-04-12T12:28:37.642Z,12.70
2019-04-12T12:31:06.509Z,12.70
2019-04-12T12:33:35.282Z,12.70
2019-04-12T12:36:04.076Z,12.60
2019-04-12T12:38:32.786Z,12.60
2019-04-12T12:41:01.617Z,12.60
2019-04-12T12:43:30.353Z,12.50
2019-04-12T12:45:59.313Z,12.50
2019-04-12T12:48:28.057Z,12.50
2019-04-12T12:50:56.922Z,12.50
2019-04-12T12:53:25.698Z,12.50
2019-04-12T12:55:54.438Z,12.60
2019-04-12T12:58:23.169Z,12.70
2019-04-12T13:00:51.879Z,12.80
2019-04-12T13:03:20.645Z,12.90
2019-04-12T13:05:49.361Z,13.00
2019-04-12T13:08:18.130Z,13.10
2019-04-12T13:10:47.001Z,13.20
2019-04-12T13:13:15.736Z,13.30
2019-04-12T13:15:44.556Z,13.20
2019-04-12T13:18:13.297Z,13.20
2019-04-12T13:20:42.003Z,13.10
2019-04-12T13:23:10.800Z,13.00
2019-04-12T13:25:39.545Z,12.80
2019-04-12T13:28:08.321Z,12.80
2019-04-12T13:30:54.929Z,12.70
2019-04-12T13:33:37.346Z,12.50
2019-04-12T13:36:24.213Z,12.50
2019-04-12T13:39:12.033Z,12.40
2019-04-12T13:41:41.311Z,12.40
2019-04-12T13:44:10.119Z,12.30
2019-04-12T13:46:38.837Z,12.30
2019-04-12T13:49:07.618Z,12.30
2019-04-12T13:51:36.338Z,12.30
2019-04-12T13:54:05.215Z,12.20
2019-04-12T13:56:33.950Z,12.30
2019-04-12T13:59:02.652Z,12.30
2019-04-12T14:01:31.442Z,12.30
2019-04-12T14:04:00.190Z,12.50
2019-04-12T14:06:28.973Z,12.70
2019-04-12T14:08:57.689Z,12.90
2019-04-12T14:11:26.469Z,13.00
2019-04-12T14:13:55.254Z,13.10
2019-04-12T14:16:24.049Z,13.10
2019-04-12T14:18:52.781Z,13.20
2019-04-12T14:21:21.536Z,13.20
2019-04-12T14:24:09.490Z,13.20
2019-04-12T14:26:38.221Z,13.10
2019-04-12T14:29:06.932Z,13.10
2019-04-12T14:31:39.330Z,13.10
2019-04-12T14:34:27.658Z,13.10
2019-04-12T14:37:09.813Z,13.10
2019-04-12T14:39:38.570Z,13.10
2019-04-12T14:42:07.429Z,13.10
2019-04-12T14:44:58.543Z,13.10
2019-04-12T14:47:34.191Z,13.20
2019-04-12T14:50:03.071Z,13.30
2019-04-12T14:52:31.765Z,13.50
2019-04-12T14:55:00.526Z,13.70
2019-04-12T14:57:29.245Z,14.00
2019-04-12T14:59:57.974Z,14.20
2019-04-12T15:02:27.745Z,14.30
2019-04-12T15:05:01.031Z,14.40
2019-04-12T15:07:29.913Z,14.30
2019-04-12T15:09:58.669Z,14.30
2019-04-12T15:12:27.405Z,14.20
2019-04-12T15:14:56.224Z,14.00
2019-04-12T15:17:24.951Z,13.90
2019-04-12T15:19:53.673Z,13.80
2019-04-12T15:22:22.378Z,13.80
2019-04-12T15:24:51.195Z,13.80
2019-04-12T15:27:19.941Z,13.90
2019-04-12T15:29:48.718Z,14.10
2019-04-12T15:32:17.515Z,14.30
2019-04-12T15:34:46.278Z,14.40
2019-04-12T15:37:15.079Z,14.50
2019-04-12T15:39:44.479Z,14.40
2019-04-12T15:42:13.921Z,14.40
2019-04-12T15:44:42.645Z,14.30
2019-04-12T15:47:11.497Z,14.10
2019-04-12T15:49:40.290Z,14.00
2019-04-12T15:52:09.105Z,13.80
2019-04-12T15:54:37.814Z,13.80
2019-04-12T15:57:06.766Z,13.70
2019-04-12T15:59:35.457Z,13.60
2019-04-12T16:02:04.777Z,13.40
2019-04-12T16:04:33.601Z,13.30
2019-04-12T16:07:03.050Z,13.20
2019-04-12T16:09:34.325Z,13.10
2019-04-12T16:12:24.550Z,13.00
2019-04-12T16:15:37.469Z,12.80
2019-04-12T16:18:09.910Z,12.70
2019-04-12T16:20:39.625Z,12.50
2019-04-12T16:23:08.401Z,12.40
2019-04-12T16:25:37.145Z,12.30
2019-04-12T16:28:32.699Z,12.20
2019-04-12T16:31:23.160Z,12.20
2019-04-12T16:33:52.552Z,12.10
2019-04-12T16:36:28.005Z,12.00
2019-04-12T16:38:56.786Z,11.90
2019-04-12T16:41:25.663Z,11.90
2019-04-12T16:43:54.432Z,11.80
2019-04-12T16:46:33.828Z,11.80
2019-04-12T16:48:53.593Z,11.80
2019-04-12T16:51:22.430Z,11.80
2019-04-12T16:53:51.244Z,11.80
2019-04-12T16:56:20.046Z,11.80
2019-04-12T16:58:48.856Z,11.70
2019-04-12T17:01:17.561Z,11.70
2019-04-12T17:03:46.349Z,11.70
2019-04-12T17:06:15.170Z,11.70
2019-04-12T17:08:43.973Z,11.60
2019-04-12T17:11:12.741Z,11.60
2019-04-12T17:13:41.458Z,11.50
2019-04-12T17:16:10.175Z,11.40
2019-04-12T17:18:38.890Z,11.30
2019-04-12T17:21:07.650Z,11.20
2019-04-12T17:23:36.361Z,11.20
2019-04-12T17:26:06.224Z,11.10
2019-04-12T17:28:35.191Z,11.00
2019-04-12T17:31:04.004Z,11.00
2019-04-12T17:33:32.738Z,11.00
2019-04-12T17:36:04.427Z,10.90
2019-04-12T17:38:33.165Z,10.90
2019-04-12T17:41:01.878Z,10.80
2019-04-12T17:43:30.585Z,10.80
2019-04-12T17:45:59.388Z,10.80
2019-04-12T17:48:59.507Z,10.70
2019-04-12T17:51:41.348Z,10.70
2019-04-12T17:54:32.165Z,10.70
2019-04-12T17:57:00.878Z,10.60
2019-04-12T17:59:29.582Z,10.60
2019-04-12T18:02:04.821Z,10.60
2019-04-12T18:04:33.518Z,10.50
2019-04-12T18:07:02.222Z,10.50
2019-04-12T18:09:30.954Z,10.50
2019-04-12T18:11:59.770Z,10.50
2019-04-12T18:14:28.465Z,10.50
2019-04-12T18:16:57.265Z,10.50
2019-04-12T18:19:25.975Z,10.50
2019-04-12T18:21:54.736Z,10.40
2019-04-12T18:24:23.467Z,10.40
2019-04-12T18:26:52.197Z,10.40
2019-04-12T18:29:20.906Z,10.40
2019-04-12T18:31:49.681Z,10.30
2019-04-12T18:34:18.410Z,10.30
2019-04-12T18:36:47.258Z,10.20
2019-04-12T18:39:16.009Z,10.10
2019-04-12T18:41:44.737Z,10.10
2019-04-12T18:44:13.481Z,10.10
2019-04-12T18:46:42.418Z,10.00
2019-04-12T18:49:11.125Z,10.00
2019-04-12T18:51:39.871Z,10.00
2019-04-12T18:54:08.579Z,9.90
2019-04-12T18:56:37.324Z,9.90
2019-04-12T18:59:06.040Z,9.80
2019-04-12T19:01:34.814Z,9.80
2019-04-12T19:04:03.637Z,9.80
2019-04-12T19:06:32.429Z,9.70
2019-04-12T19:09:01.925Z,9.70
2019-04-12T19:11:30.634Z,9.60
2019-04-12T19:13:59.353Z,9.60
2019-04-12T19:16:28.137Z,9.60
2019-04-12T19:18:56.854Z,9.50
2019-04-12T19:21:25.561Z,9.50
2019-04-12T19:23:54.324Z,9.50
2019-04-12T19:26:23.061Z,9.40
2019-04-12T19:28:51.790Z,9.40
2019-04-12T19:31:31.858Z,9.40
2019-04-12T19:34:09.641Z,9.30
2019-04-12T19:36:42.878Z,9.30
2019-04-12T19:39:29.663Z,9.30
2019-04-12T19:42:00.434Z,9.20
2019-04-12T19:44:29.173Z,9.20
2019-04-12T19:46:57.874Z,9.10
2019-04-12T19:49:26.645Z,9.10
2019-04-12T19:51:55.447Z,9.00
2019-04-12T19:54:24.245Z,9.00
2019-04-12T19:56:53.033Z,8.90
2019-04-12T19:59:21.821Z,8.90
2019-04-12T20:01:50.521Z,8.90
2019-04-12T20:04:19.269Z,8.80
2019-04-12T20:06:47.971Z,8.80
2019-04-12T20:09:16.677Z,8.80
2019-04-12T20:11:45.429Z,8.80
2019-04-12T20:14:14.141Z,8.70
2019-04-12T20:16:42.921Z,8.70
2019-04-12T20:19:11.728Z,8.70
2019-04-12T20:21:40.422Z,8.70
2019-04-12T20:24:09.156Z,8.70
2019-04-12T20:26:37.929Z,8.70
2019-04-12T20:29:06.648Z,8.60
2019-04-12T20:31:35.453Z,8.60
2019-04-12T20:34:04.277Z,8.60
2019-04-12T20:36:33.038Z,8.60
2019-04-12T20:39:01.799Z,8.60
2019-04-12T20:41:30.521Z,8.60
2019-04-12T20:43:59.297Z,8.50
2019-04-12T20:46:28.010Z,8.50
2019-04-12T20:48:56.783Z,8.50
2019-04-12T20:51:25.601Z,8.50
2019-04-12T20:53:54.496Z,8.40
2019-04-12T20:56:23.690Z,8.40
2019-04-12T20:58:52.383Z,8.40
2019-04-12T21:01:21.201Z,8.30
2019-04-12T21:03:49.959Z,8.20
2019-04-12T21:06:18.670Z,8.20
2019-04-12T21:08:47.514Z,8.10
2019-04-12T21:11:16.371Z,8.10
2019-04-12T21:13:45.065Z,8.10
2019-04-12T21:16:13.845Z,8.00
2019-04-12T21:18:42.645Z,8.00
2019-04-12T21:21:11.425Z,8.00
2019-04-12T21:23:40.123Z,7.90
2019-04-12T21:26:08.823Z,7.90
2019-04-12T21:28:37.518Z,7.80
2019-04-12T21:31:06.243Z,7.80
2019-04-12T21:33:34.942Z,7.80
2019-04-12T21:36:03.669Z,7.80
2019-04-12T21:38:32.386Z,7.70
2019-04-12T21:41:02.766Z,7.70
2019-04-12T21:43:31.517Z,7.70
2019-04-12T21:46:00.333Z,7.70
2019-04-12T21:48:29.835Z,7.60
2019-04-12T21:50:58.585Z,7.60
2019-04-12T21:53:27.312Z,7.60
2019-04-12T21:55:56.041Z,7.60
2019-04-12T21:58:24.829Z,7.50
2019-04-12T22:00:58.976Z,7.50
2019-04-12T22:03:40.073Z,7.50
2019-04-12T22:05:58.637Z,7.50
2019-04-12T22:08:27.458Z,7.40
2019-04-12T22:10:56.166Z,7.40
2019-04-12T22:13:24.945Z,7.30
2019-04-12T22:15:53.670Z,7.30
2019-04-12T22:18:22.381Z,7.30
2019-04-12T22:20:51.157Z,7.30
2019-04-12T22:23:19.875Z,7.30
2019-04-12T22:25:48.590Z,7.20
2019-04-12T22:28:17.312Z,7.20
2019-04-12T22:30:47.812Z,7.20
2019-04-12T22:33:16.608Z,7.20
2019-04-12T22:35:45.381Z,7.10
2019-04-12T22:38:14.098Z,7.10
2019-04-12T22:40:42.814Z,7.10
2019-04-12T22:43:11.524Z,7.00
2019-04-12T22:45:40.247Z,7.00
2019-04-12T22:48:08.973Z,7.00
2019-04-12T22:50:37.665Z,7.00
2019-04-12T22:53:06.454Z,6.90
2019-04-12T22:55:35.138Z,6.90
2019-04-12T22:58:03.967Z,6.90
2019-04-12T23:00:32.872Z,6.90
2019-04-12T23:03:01.602Z,6.90
2019-04-12T23:05:31.695Z,6.90
2019-04-12T23:08:00.563Z,6.80
2019-04-12T23:10:29.298Z,6.80
2019-04-12T23:12:58.083Z,6.80
2019-04-12T23:15:26.891Z,6.80
2019-04-12T23:17:55.623Z,6.80
2019-04-12T23:20:24.337Z,6.70
2019-04-12T23:22:53.073Z,6.70
2019-04-12T23:25:21.805Z,6.70
2019-04-12T23:27:50.517Z,6.60
2019-04-12T23:30:38.337Z,6.70
2019-04-12T23:33:07.129Z,6.60
2019-04-12T23:35:38.817Z,6.60
2019-04-12T23:38:07.516Z,6.50
2019-04-12T23:40:36.225Z,6.50
2019-04-12T23:43:05.793Z,6.50
2019-04-12T23:45:34.529Z,6.50
2019-04-12T23:48:03.241Z,6.50
2019-04-12T23:50:32.029Z,6.50
2019-04-12T23:53:00.833Z,6.40
2019-04-12T23:55:29.597Z,6.40
2019-04-12T23:57:59.523Z,6.40
